Hlavní strana
METAR-TAF:

METAR-TAF

Letiště :

Carrollton, Georgie, Spojené státy americké

zeměpisná šířka: 33-37-54N, zeměpisná délka: 085-09-08W, výška: 354 m

Aktuální stav počasí

Zpráva byla vytvořena před 28 minutami, v 10:35 UTC
Bezvětří
Teplota 18°C
Vlhkost vzduchu 100%
Tlak 1023 hPa
Viditelnost: 16.1 km
Jasno

METAR: KCTJ 241035Z AUTO 00000KT 10SM CLR 18/18 A3022 RMK AO2 T01810175

Čas: 07:03 (11:03 UTC)


TAF: chybějící

Stav a předpovědi počasí z více než 4 000 letišť (zprávy METAR a TAF).

Červené a žluté tečky na mapě představují dostupné meteorologické stanice.

Když kurzor umístíte na tečku, zobrazí se název stanice.

Pak kliknutím zobrazíte stav a předpověď počasí.

Chcete-li změnit mapu, kliknutím na zelené tlačítko se znaménkem +mapu přiblížíte, kliknutím na zelené tlačítko se znaménkem – mapu oddálíte a kliknutím na zelené šipky přejdete na sousední mapy.


METAR-TAF: